Time;durP1;ratioP1;P1;durP2;ratioP2;P2;SDS_P1;SDS_P2;PMS_P1;PMS_P2;Temp;Humidity;BMP_temperature;BMP_pressure;BME280_temperature;BME280_humidity;BME280_pressure;Samples;Min_cycle;Max_cycle;Signal;HPM_P1;HPM_P2
2021/07/13 00:00:16;;;;;;;0.93;0.90;;;20.60;99.90;;;;;;5091248;28;20544;-71
2021/07/13 00:02:42;;;;;;;1.48;1.38;;;20.50;99.90;;;;;;5091310;28;20179;-71
2021/07/13 00:05:12;;;;;;;2.35;2.20;;;20.50;99.90;;;;;;5082594;28;20270;-71
2021/07/13 00:07:39;;;;;;;1.70;1.60;;;20.50;99.90;;;;;;5091128;28;20218;-68
2021/07/13 00:10:09;;;;;;;3.35;2.42;;;20.40;99.90;;;;;;5090895;28;20195;-71
2021/07/13 00:12:36;;;;;;;0.68;0.68;;;20.40;99.90;;;;;;5091088;28;20221;-71
2021/07/13 00:15:13;;;;;;;3.38;2.45;;;20.40;99.90;;;;;;5073009;28;20545;-71
2021/07/13 00:17:39;;;;;;;1.40;1.30;;;20.40;99.90;;;;;;5090833;28;20206;-71
2021/07/13 00:20:07;;;;;;;1.02;1.00;;;20.40;99.90;;;;;;5072884;28;20217;-71
2021/07/13 00:22:33;;;;;;;1.40;1.30;;;20.50;99.90;;;;;;5090932;28;20202;-70
2021/07/13 00:24:59;;;;;;;3.72;1.85;;;20.50;99.90;;;;;;5072955;28;20169;-71
2021/07/13 00:27:25;;;;;;;2.85;2.05;;;20.50;99.90;;;;;;5072488;28;20210;-70
2021/07/13 00:29:51;;;;;;;3.03;2.83;;;20.40;99.90;;;;;;5072676;28;20211;-71
2021/07/13 00:32:17;;;;;;;1.52;1.42;;;20.30;99.90;;;;;;5072773;28;20164;-70
2021/07/13 00:34:42;;;;;;;1.45;1.40;;;20.20;99.90;;;;;;5072652;28;20175;-70
2021/07/13 00:37:08;;;;;;;1.35;1.33;;;20.10;99.90;;;;;;5105479;28;20160;-70
2021/07/13 00:39:34;;;;;;;0.98;0.98;;;20.10;99.90;;;;;;5109578;28;20193;-70
2021/07/13 00:42:00;;;;;;;1.23;1.13;;;20.10;99.90;;;;;;5110885;28;20156;-70
2021/07/13 00:44:26;;;;;;;1.17;1.17;;;20.10;99.90;;;;;;5098365;28;20228;-70
2021/07/13 00:46:55;;;;;;;1.58;1.48;;;20.00;99.90;;;;;;5070088;28;20180;-70
2021/07/13 00:49:20;;;;;;;2.58;1.95;;;20.00;99.90;;;;;;5055813;28;20215;-70
2021/07/13 00:51:46;;;;;;;1.48;1.38;;;20.00;99.90;;;;;;5050304;28;20149;-70
2021/07/13 00:54:13;;;;;;;2.80;2.55;;;19.90;99.90;;;;;;5050227;28;20162;-71
2021/07/13 00:56:41;;;;;;;1.67;1.20;;;20.00;99.90;;;;;;5050115;28;20168;-70
2021/07/13 00:59:07;;;;;;;1.88;1.77;;;20.00;99.90;;;;;;5050045;28;20249;-70
2021/07/13 01:01:35;;;;;;;1.60;1.50;;;20.00;99.90;;;;;;5050038;28;20165;-70
2021/07/13 01:04:05;;;;;;;2.38;2.17;;;19.90;99.90;;;;;;5049494;28;20227;-69
2021/07/13 01:07:00;;;;;;;5.22;2.17;;;19.90;99.90;;;;;;5050094;28;20258;-70
2021/07/13 01:10:00;;;;;;;5.28;1.95;;;19.90;99.90;;;;;;5048210;28;20205;-71
2021/07/13 01:12:48;;;;;;;2.05;1.00;;;19.90;99.90;;;;;;5049705;28;20189;-70
2021/07/13 01:15:22;;;;;;;2.75;2.17;;;19.80;99.90;;;;;;5049829;28;20161;-69
2021/07/13 01:17:56;;;;;;;2.00;1.90;;;19.80;99.90;;;;;;5049654;28;20196;-69
2021/07/13 01:20:59;;;;;;;2.13;1.98;;;19.80;99.90;;;;;;5049768;28;20161;-69
2021/07/13 01:23:43;;;;;;;2.33;2.22;;;19.80;99.90;;;;;;5049543;28;20196;-73
2021/07/13 01:26:15;;;;;;;4.22;1.52;;;19.70;99.90;;;;;;5048262;28;20191;-71
2021/07/13 01:28:49;;;;;;;2.40;1.77;;;19.70;99.90;;;;;;5049451;28;20229;-72
2021/07/13 01:31:17;;;;;;;1.67;1.58;;;19.70;99.90;;;;;;5049499;28;20200;-72
2021/07/13 01:33:50;;;;;;;1.80;1.70;;;19.60;99.90;;;;;;5048237;28;20165;-73
2021/07/13 01:36:23;;;;;;;1.85;1.35;;;19.60;99.90;;;;;;5056994;28;20179;-72
2021/07/13 01:38:52;;;;;;;2.67;2.42;;;19.60;99.90;;;;;;5068771;28;20196;-72
2021/07/13 01:41:23;;;;;;;2.10;1.98;;;19.60;99.90;;;;;;5068049;28;20192;-73
2021/07/13 01:43:51;;;;;;;1.08;0.98;;;19.50;99.90;;;;;;5072583;28;20176;-73
2021/07/13 01:46:18;;;;;;;1.60;1.50;;;19.50;99.90;;;;;;5109625;28;20241;-74
2021/07/13 01:48:47;;;;;;;2.13;1.70;;;19.50;99.90;;;;;;5100093;28;20598;-73
2021/07/13 01:51:14;;;;;;;2.08;1.85;;;19.60;99.90;;;;;;5089333;28;20247;-73
2021/07/13 01:53:42;;;;;;;1.02;1.02;;;19.70;99.90;;;;;;5089401;28;20239;-73
2021/07/13 01:56:10;;;;;;;1.98;1.67;;;19.70;99.90;;;;;;5071283;28;20175;-73
2021/07/13 01:58:38;;;;;;;2.80;2.60;;;19.80;99.90;;;;;;5089262;28;20196;-72
2021/07/13 02:01:19;;;;;;;0.88;0.80;;;19.70;99.90;;;;;;5089333;28;20184;-72
2021/07/13 02:03:48;;;;;;;2.05;1.77;;;19.60;99.90;;;;;;5071053;28;20183;-72
2021/07/13 02:06:20;;;;;;;3.58;0.90;;;19.60;99.90;;;;;;5089207;28;20590;-72
2021/07/13 02:08:50;;;;;;;2.45;1.58;;;19.60;99.90;;;;;;5088944;28;20295;-72
2021/07/13 02:11:16;;;;;;;2.22;2.13;;;19.50;99.90;;;;;;5089172;28;20209;-72
2021/07/13 02:13:43;;;;;;;1.60;1.50;;;19.50;99.90;;;;;;5089048;28;20163;-73
2021/07/13 02:16:09;;;;;;;2.95;2.35;;;19.50;99.90;;;;;;5089084;28;20159;-72
2021/07/13 02:18:35;;;;;;;0.82;0.82;;;19.50;99.90;;;;;;5070824;28;20196;-72
2021/07/13 02:21:03;;;;;;;3.65;2.70;;;19.50;99.90;;;;;;5089167;28;20214;-72
2021/07/13 02:23:28;;;;;;;2.33;2.13;;;19.50;99.90;;;;;;5089050;28;20168;-72
2021/07/13 02:25:59;;;;;;;2.58;2.33;;;19.50;99.90;;;;;;5089122;28;20160;-72
2021/07/13 02:28:31;;;;;;;1.65;1.55;;;19.50;99.90;;;;;;5088662;28;20220;-72
2021/07/13 02:31:06;;;;;;;1.63;1.02;;;19.60;99.90;;;;;;5070571;28;20194;-72
2021/07/13 02:33:42;;;;;;;1.67;1.58;;;19.70;99.90;;;;;;5070204;28;20192;-72
2021/07/13 02:36:13;;;;;;;2.17;2.05;;;19.60;99.90;;;;;;5088920;28;20159;-71
2021/07/13 02:38:41;;;;;;;1.58;1.17;;;19.50;99.90;;;;;;5088221;28;20153;-72
2021/07/13 02:41:07;;;;;;;0.95;0.88;;;19.50;99.90;;;;;;5088607;28;20178;-72
2021/07/13 02:43:35;;;;;;;1.10;1.08;;;19.50;99.90;;;;;;5088479;28;20160;-72
2021/07/13 02:46:02;;;;;;;0.65;0.65;;;19.40;99.90;;;;;;5070589;28;20183;-72
2021/07/13 02:48:29;;;;;;;1.77;1.67;;;19.40;99.90;;;;;;5088661;28;20180;-72
2021/07/13 02:50:57;;;;;;;2.55;1.85;;;19.30;99.90;;;;;;5092113;28;20163;-72
2021/07/13 02:53:27;;;;;;;1.02;1.00;;;19.30;99.90;;;;;;5092528;28;20157;-72
2021/07/13 02:55:53;;;;;;;1.60;1.58;;;19.50;99.90;;;;;;5092550;28;20155;-72
2021/07/13 02:58:21;;;;;;;2.50;2.30;;;19.50;99.90;;;;;;5092333;28;20164;-72
2021/07/13 03:00:48;;;;;;;1.92;1.77;;;19.50;99.90;;;;;;5092508;28;20540;-72
2021/07/13 03:03:15;;;;;;;3.28;1.88;;;19.50;99.90;;;;;;5092292;28;20220;-73
2021/07/13 03:05:42;;;;;;;1.30;1.20;;;19.50;99.90;;;;;;5092172;28;20157;-73
2021/07/13 03:08:09;;;;;;;1.65;1.55;;;19.40;99.90;;;;;;5092142;28;20180;-72
2021/07/13 03:10:35;;;;;;;1.77;1.13;;;19.50;99.90;;;;;;5091900;28;20184;-72
2021/07/13 03:13:02;;;;;;;2.45;2.25;;;19.40;99.90;;;;;;5092071;28;20156;-73
2021/07/13 03:15:30;;;;;;;1.60;1.58;;;19.40;99.90;;;;;;5074095;28;20690;-72
2021/07/13 03:17:58;;;;;;;2.58;1.38;;;19.40;99.90;;;;;;5073890;28;20234;-72
2021/07/13 03:20:25;;;;;;;6.95;2.50;;;19.40;99.90;;;;;;5091823;28;20180;-72
2021/07/13 03:22:52;;;;;;;1.25;1.25;;;19.30;99.90;;;;;;5073670;28;20183;-72
2021/07/13 03:25:32;;;;;;;3.08;1.27;;;19.30;99.90;;;;;;5073769;28;20190;-72
2021/07/13 03:28:01;;;;;;;0.88;0.88;;;19.20;99.90;;;;;;5091868;28;20152;-72
2021/07/13 03:30:28;;;;;;;1.95;1.30;;;19.20;99.90;;;;;;5091661;28;20188;-72
2021/07/13 03:32:56;;;;;;;2.65;2.45;;;19.20;99.90;;;;;;5091792;28;20156;-72
2021/07/13 03:35:23;;;;;;;2.50;2.17;;;19.20;99.90;;;;;;5091810;28;20160;-72
2021/07/13 03:37:50;;;;;;;3.35;2.72;;;19.20;99.90;;;;;;5091663;28;20164;-73
2021/07/13 03:40:17;;;;;;;0.93;0.88;;;19.20;99.90;;;;;;5091290;28;20246;-73
2021/07/13 03:42:47;;;;;;;8.27;3.25;;;19.20;99.90;;;;;;5091538;28;20175;-73
2021/07/13 03:45:17;;;;;;;1.33;1.23;;;19.20;99.90;;;;;;5091274;28;20346;-72
2021/07/13 03:47:58;;;;;;;2.58;1.48;;;19.20;99.90;;;;;;5091413;28;20231;-73
2021/07/13 03:50:27;;;;;;;2.78;2.58;;;19.20;99.90;;;;;;5073287;28;20263;-72
2021/07/13 03:52:53;;;;;;;1.35;1.33;;;19.30;99.90;;;;;;5073403;28;20164;-72
2021/07/13 03:55:19;;;;;;;18.85;3.58;;;19.30;99.90;;;;;;5091324;28;20167;-72
2021/07/13 03:57:45;;;;;;;1.65;1.55;;;19.30;99.90;;;;;;5073250;28;20172;-73
2021/07/13 04:00:17;;;;;;;2.20;2.00;;;19.50;99.90;;;;;;5073107;28;20222;-72
2021/07/13 04:02:44;;;;;;;2.65;2.47;;;19.60;99.90;;;;;;5090598;28;20156;-73
2021/07/13 04:05:12;;;;;;;3.97;3.00;;;19.70;99.90;;;;;;5073100;28;20535;-72
2021/07/13 04:07:39;;;;;;;1.20;1.20;;;19.70;99.90;;;;;;5072893;28;20183;-72
2021/07/13 04:10:07;;;;;;;1.20;1.10;;;19.70;99.90;;;;;;5090664;28;20203;-72
2021/07/13 04:12:34;;;;;;;2.10;2.00;;;19.70;99.90;;;;;;5090909;28;20163;-72
2021/07/13 04:15:00;;;;;;;3.78;2.83;;;19.80;99.90;;;;;;5073148;28;20164;-72
2021/07/13 04:17:26;;;;;;;1.58;1.48;;;20.00;99.90;;;;;;5072966;28;20191;-72
2021/07/13 04:19:53;;;;;;;1.55;1.33;;;20.20;99.90;;;;;;5090756;28;20247;-72
2021/07/13 04:22:19;;;;;;;2.08;1.58;;;20.40;99.90;;;;;;5090761;28;20160;-72
2021/07/13 04:24:46;;;;;;;1.52;1.42;;;20.50;99.90;;;;;;5072811;28;20250;-72
2021/07/13 04:27:15;;;;;;;2.10;1.98;;;20.70;99.90;;;;;;5090595;28;20251;-72
2021/07/13 04:29:41;;;;;;;1.65;1.55;;;20.80;99.90;;;;;;5090569;28;20290;-72
2021/07/13 04:32:08;;;;;;;2.97;1.63;;;21.10;99.90;;;;;;5090371;28;20156;-72
2021/07/13 04:34:34;;;;;;;8.15;1.83;;;21.30;99.90;;;;;;5090496;28;20239;-71
2021/07/13 04:37:01;;;;;;;1.52;1.42;;;21.30;99.90;;;;;;5090455;28;20559;-72
2021/07/13 04:39:27;;;;;;;1.42;1.33;;;21.60;99.90;;;;;;5090218;28;20199;-72
2021/07/13 04:41:53;;;;;;;2.85;1.77;;;21.80;99.90;;;;;;5072070;28;20171;-72
2021/07/13 04:44:20;;;;;;;4.55;1.88;;;22.00;99.90;;;;;;5089915;28;20284;-72
2021/07/13 04:46:46;;;;;;;4.97;3.30;;;22.10;99.90;;;;;;5090186;28;20179;-72
2021/07/13 04:49:12;;;;;;;7.38;1.88;;;22.30;99.90;;;;;;5089943;28;20207;-73
2021/07/13 04:51:39;;;;;;;3.58;2.72;;;22.60;99.90;;;;;;5089967;28;20148;-72
2021/07/13 04:54:05;;;;;;;3.00;2.33;;;22.80;99.90;;;;;;5072080;28;20227;-72
2021/07/13 04:56:31;;;;;;;2.20;2.05;;;22.90;99.90;;;;;;5089990;28;20160;-72
2021/07/13 04:58:57;;;;;;;2.15;1.88;;;23.10;99.90;;;;;;5089875;28;20187;-72
2021/07/13 05:01:23;;;;;;;1.52;1.42;;;23.30;99.90;;;;;;5089881;28;20187;-74
2021/07/13 05:03:49;;;;;;;4.15;2.30;;;23.40;99.90;;;;;;5089918;28;20168;-73
2021/07/13 05:06:15;;;;;;;1.77;1.55;;;23.30;99.90;;;;;;5071869;28;20167;-73
2021/07/13 05:08:42;;;;;;;2.28;1.90;;;23.20;99.90;;;;;;5071675;28;20203;-73
2021/07/13 05:11:08;;;;;;;5.25;2.22;;;23.20;99.90;;;;;;5071635;28;20198;-74
2021/07/13 05:13:34;;;;;;;2.42;1.63;;;23.40;99.90;;;;;;5070770;28;20171;-74
2021/07/13 05:16:00;;;;;;;3.35;2.60;;;23.70;99.90;;;;;;5089756;28;20167;-74
2021/07/13 05:18:26;;;;;;;2.15;1.95;;;24.20;99.90;;;;;;5071747;28;20186;-74
2021/07/13 05:20:59;;;;;;;4.20;2.00;;;24.80;99.90;;;;;;5071392;28;20178;-74
2021/07/13 05:23:25;;;;;;;2.40;2.13;;;25.30;99.90;;;;;;5089518;28;20167;-74
2021/07/13 05:25:51;;;;;;;1.33;1.27;;;25.60;99.90;;;;;;5071217;28;20580;-74
2021/07/13 05:28:17;;;;;;;1.58;1.48;;;25.90;99.90;;;;;;5089050;28;20187;-72
2021/07/13 05:30:45;;;;;;;3.70;1.65;;;26.30;99.90;;;;;;5089479;28;20737;-74
2021/07/13 05:33:14;;;;;;;2.45;2.33;;;25.80;99.90;;;;;;5071282;28;20254;-74
2021/07/13 05:35:42;;;;;;;1.52;1.48;;;25.50;99.90;;;;;;5089393;28;20183;-74
2021/07/13 05:38:10;;;;;;;1.17;1.08;;;25.20;99.90;;;;;;5089054;28;20152;-74
2021/07/13 05:40:37;;;;;;;1.63;1.52;;;25.70;99.90;;;;;;5088829;28;20191;-73
2021/07/13 05:43:03;;;;;;;2.50;1.67;;;26.30;99.90;;;;;;5089308;28;20217;-73
2021/07/13 05:45:29;;;;;;;1.65;1.55;;;26.50;99.90;;;;;;5089076;28;20219;-73
2021/07/13 05:47:55;;;;;;;1.73;1.63;;;26.40;99.90;;;;;;5071152;28;20586;-73
2021/07/13 05:50:20;;;;;;;2.13;1.80;;;26.80;99.90;;;;;;5089068;28;20187;-73
2021/07/13 05:52:46;;;;;;;1.73;1.60;;;27.10;99.90;;;;;;5088863;28;20605;-73
2021/07/13 05:55:12;;;;;;;7.57;2.50;;;27.80;99.90;;;;;;5088963;28;20216;-73
2021/07/13 05:57:39;;;;;;;2.47;2.25;;;28.30;99.90;;;;;;5089057;28;20172;-73
2021/07/13 06:00:09;;;;;;;1.60;1.52;;;28.30;99.90;;;;;;5089171;28;20191;-72
2021/07/13 06:02:35;;;;;;;1.60;1.27;;;27.90;99.90;;;;;;5088746;28;20175;-73
2021/07/13 06:05:00;;;;;;;3.45;2.33;;;27.90;99.90;;;;;;5070988;28;20179;-73
2021/07/13 06:07:26;;;;;;;3.35;2.20;;;28.40;99.90;;;;;;5089086;28;20151;-74
2021/07/13 06:09:52;;;;;;;2.22;1.38;;;29.00;99.90;;;;;;5088845;28;20225;-73
2021/07/13 06:12:18;;;;;;;1.02;1.00;;;29.60;99.90;;;;;;5088909;28;20180;-73
2021/07/13 06:14:44;;;;;;;2.60;2.13;;;29.70;99.90;;;;;;5070562;28;20193;-73
2021/07/13 06:17:10;;;;;;;2.00;1.75;;;30.20;99.90;;;;;;5088893;28;20159;-72
2021/07/13 06:19:36;;;;;;;3.72;1.73;;;30.00;99.90;;;;;;5088780;28;20194;-72
2021/07/13 06:22:03;;;;;;;2.63;2.42;;;29.90;99.90;;;;;;5088817;28;20164;-72
2021/07/13 06:24:29;;;;;;;1.85;1.60;;;29.40;99.90;;;;;;5071773;28;20301;-73
2021/07/13 06:26:55;;;;;;;5.43;2.17;;;30.10;99.90;;;;;;5092880;28;20195;-74
2021/07/13 06:29:22;;;;;;;2.25;1.95;;;30.40;99.90;;;;;;5092619;28;20203;-73
2021/07/13 06:31:51;;;;;;;1.92;1.83;;;30.60;99.90;;;;;;5092904;28;20152;-73
2021/07/13 06:34:18;;;;;;;1.35;1.25;;;30.60;99.90;;;;;;5092917;28;20234;-74
2021/07/13 06:36:44;;;;;;;1.88;1.75;;;30.80;99.90;;;;;;5074641;28;20163;-73
2021/07/13 06:39:10;;;;;;;9.25;2.80;;;30.50;99.90;;;;;;5092400;28;20193;-74
2021/07/13 06:41:36;;;;;;;2.40;2.22;;;29.70;99.90;;;;;;5092500;28;20167;-74
2021/07/13 06:44:02;;;;;;;2.30;1.95;;;29.20;99.90;;;;;;5092233;28;20222;-73
2021/07/13 06:46:28;;;;;;;3.65;1.92;;;28.90;99.90;;;;;;5074422;28;20242;-72
2021/07/13 06:48:54;;;;;;;3.25;2.55;;;29.00;99.90;;;;;;5092294;28;20260;-74
2021/07/13 06:51:20;;;;;;;2.30;2.10;;;29.70;99.90;;;;;;5092067;28;20190;-72
2021/07/13 06:53:46;;;;;;;1.75;1.65;;;30.70;99.90;;;;;;5092116;28;20160;-72
2021/07/13 06:56:12;;;;;;;2.22;1.80;;;31.30;99.90;;;;;;5092149;28;20155;-72
2021/07/13 06:58:38;;;;;;;3.13;2.83;;;32.20;99.90;;;;;;5074193;28;20175;-72
2021/07/13 07:01:03;;;;;;;1.42;1.33;;;32.00;99.90;;;;;;5092178;28;20179;-71
2021/07/13 07:03:29;;;;;;;3.90;2.38;;;31.90;99.90;;;;;;5091785;28;20183;-71
2021/07/13 07:05:55;;;;;;;1.75;1.65;;;31.80;99.90;;;;;;5091939;28;20168;-71
2021/07/13 07:08:21;;;;;;;13.32;2.88;;;31.60;99.90;;;;;;5091974;28;20255;-71
2021/07/13 07:10:47;;;;;;;3.45;2.72;;;31.90;99.90;;;;;;5073901;28;20270;-72
2021/07/13 07:13:16;;;;;;;2.38;1.98;;;32.60;99.90;;;;;;5092070;28;20167;-72
2021/07/13 07:15:45;;;;;;;1.25;1.13;;;33.50;99.90;;;;;;5073933;28;20167;-70
2021/07/13 07:18:11;;;;;;;1.42;1.35;;;33.50;99.90;;;;;;5065921;28;20199;-73
2021/07/13 07:20:37;;;;;;;7.97;2.33;;;33.80;99.90;;;;;;5073755;28;20191;-73
2021/07/13 07:23:04;;;;;;;2.47;2.28;;;33.00;99.90;;;;;;5089354;28;20195;-73
2021/07/13 07:25:30;;;;;;;4.03;3.00;;;33.10;99.90;;;;;;5056081;28;20187;-72
2021/07/13 07:28:00;;;;;;;1.35;1.20;;;32.00;99.90;;;;;;5058055;28;20179;-73
2021/07/13 07:30:28;;;;;;;3.75;2.35;;;31.40;99.90;;;;;;5069546;28;20179;-72
2021/07/13 07:32:56;;;;;;;2.10;1.98;;;31.20;99.90;;;;;;5077880;28;20239;-72
2021/07/13 07:35:22;;;;;;;4.30;1.67;;;31.10;99.90;;;;;;5089947;28;20164;-73
2021/07/13 07:37:48;;;;;;;6.03;1.63;;;30.70;99.90;;;;;;5072603;28;20163;-73
2021/07/13 07:40:20;;;;;;;2.38;2.17;;;30.40;99.90;;;;;;5073002;28;20163;-73
2021/07/13 07:42:53;;;;;;;1.30;1.20;;;30.10;99.90;;;;;;5088295;28;20187;-73
2021/07/13 07:45:21;;;;;;;2.78;2.30;;;30.60;99.90;;;;;;5072630;28;20724;-72
2021/07/13 07:47:48;;;;;;;2.05;1.33;;;30.70;99.90;;;;;;5073058;28;20187;-72
2021/07/13 07:50:16;;;;;;;1.38;1.10;;;30.90;99.90;;;;;;5073166;28;20225;-72
2021/07/13 07:52:42;;;;;;;1.92;1.33;;;31.00;99.90;;;;;;5091235;28;20155;-71
2021/07/13 07:55:09;;;;;;;1.67;1.58;;;31.60;99.90;;;;;;5091220;28;20156;-72
2021/07/13 07:57:35;;;;;;;3.30;1.77;;;33.00;99.90;;;;;;5073010;28;20183;-72
2021/07/13 08:00:05;;;;;;;2.40;1.83;;;33.20;99.90;;;;;;5091148;28;20230;-71
2021/07/13 08:02:31;;;;;;;2.28;1.45;;;33.30;99.90;;;;;;5073167;28;20170;-71
2021/07/13 08:04:57;;;;;;;2.20;2.05;;;32.90;99.90;;;;;;5072849;28;20502;-71
2021/07/13 08:07:22;;;;;;;2.92;2.33;;;32.30;99.90;;;;;;5090879;28;20163;-70
2021/07/13 08:09:48;;;;;;;1.15;1.05;;;32.70;99.90;;;;;;5090786;28;20195;-71
2021/07/13 08:12:14;;;;;;;9.52;2.47;;;33.00;99.90;;;;;;5090876;28;20178;-71
2021/07/13 08:14:40;;;;;;;2.72;0.95;;;34.00;99.90;;;;;;5072656;28;20224;-71
2021/07/13 08:17:06;;;;;;;1.20;1.13;;;33.80;99.90;;;;;;5072617;28;20193;-72
2021/07/13 08:19:38;;;;;;;2.17;1.92;;;33.60;99.90;;;;;;5090703;28;20192;-71
2021/07/13 08:22:09;;;;;;;2.30;1.38;;;33.50;99.90;;;;;;5090629;28;20178;-72
2021/07/13 08:24:36;;;;;;;1.85;1.40;;;33.90;99.90;;;;;;5090443;28;20178;-72
2021/07/13 08:27:06;;;;;;;3.35;1.58;;;34.50;99.90;;;;;;5090644;28;20163;-71
2021/07/13 08:29:33;;;;;;;3.97;2.08;;;34.10;99.90;;;;;;5090430;28;20219;-72
2021/07/13 08:31:59;;;;;;;1.48;1.30;;;33.20;99.90;;;;;;5090577;28;20178;-73
2021/07/13 08:34:30;;;;;;;1.73;1.63;;;32.50;99.90;;;;;;5090270;28;20164;-72
2021/07/13 08:36:57;;;;;;;2.25;2.05;;;32.50;99.90;;;;;;5072324;28;20179;-72
2021/07/13 08:39:24;;;;;;;1.60;1.13;;;32.80;99.90;;;;;;5072146;28;20191;-72
2021/07/13 08:41:50;;;;;;;1.63;1.45;;;32.60;99.90;;;;;;5088506;28;20414;-73
2021/07/13 08:44:16;;;;;;;1.05;0.95;;;32.10;99.90;;;;;;5083923;28;20257;-73
2021/07/13 08:46:45;;;;;;;1.95;1.50;;;31.60;99.90;;;;;;5080921;28;20222;-73
2021/07/13 08:49:13;;;;;;;2.03;1.83;;;31.20;99.90;;;;;;5088966;28;20251;-73
2021/07/13 08:51:40;;;;;;;2.15;0.93;;;31.90;99.90;;;;;;5090007;28;20159;-73
2021/07/13 08:54:07;;;;;;;1.33;1.23;;;32.50;99.90;;;;;;5072031;28;20177;-72
2021/07/13 08:56:36;;;;;;;4.72;0.95;;;32.60;99.90;;;;;;5089934;28;20219;-72
2021/07/13 08:59:04;;;;;;;1.35;1.25;;;32.90;99.90;;;;;;5088599;28;20159;-71
2021/07/13 09:01:31;;;;;;;6.82;2.85;;;32.50;99.90;;;;;;5089835;28;20166;-72
2021/07/13 09:04:01;;;;;;;6.80;1.98;;;32.10;99.90;;;;;;5071742;28;20159;-72
2021/07/13 09:06:47;;;;;;;0.85;0.63;;;32.40;99.90;;;;;;5089706;28;20191;-72
2021/07/13 09:09:31;;;;;;;3.30;1.23;;;32.90;99.90;;;;;;5089766;28;20210;-72
2021/07/13 09:12:19;;;;;;;1.33;1.08;;;32.40;99.90;;;;;;5089443;28;20189;-72
2021/07/13 09:15:05;;;;;;;1.33;1.23;;;32.00;99.90;;;;;;5071562;28;20159;-71
2021/07/13 09:17:45;;;;;;;1.38;1.27;;;31.60;99.90;;;;;;5089747;28;20218;-73
2021/07/13 09:20:24;;;;;;;1.10;1.10;;;32.00;99.90;;;;;;5089560;28;20163;-72
2021/07/13 09:23:04;;;;;;;1.60;1.17;;;32.70;99.90;;;;;;5065346;28;20183;-72
2021/07/13 09:25:37;;;;;;;1.30;1.20;;;33.70;99.90;;;;;;5074399;28;20183;-72
2021/07/13 09:28:18;;;;;;;4.63;1.83;;;33.80;99.90;;;;;;5069315;28;20148;-72
2021/07/13 09:30:58;;;;;;;1.65;1.55;;;33.60;99.90;;;;;;5069240;28;20163;-72
2021/07/13 09:33:34;;;;;;;1.58;1.48;;;34.10;99.90;;;;;;5067987;28;20262;-72
2021/07/13 09:36:14;;;;;;;1.75;1.08;;;34.50;99.90;;;;;;5069160;28;20217;-72
2021/07/13 09:38:55;;;;;;;0.93;0.80;;;35.20;99.90;;;;;;5079578;28;20179;-73
2021/07/13 09:41:31;;;;;;;2.08;1.88;;;35.70;99.90;;;;;;5085930;28;20296;-72
2021/07/13 09:44:04;;;;;;;3.13;1.35;;;36.50;99.90;;;;;;5088934;28;20214;-72
2021/07/13 09:46:44;;;;;;;2.28;1.35;;;36.00;99.90;;;;;;5083035;28;20199;-72
2021/07/13 09:49:24;;;;;;;1.23;1.10;;;35.00;99.90;;;;;;5087795;28;20187;-72
2021/07/13 09:52:00;;;;;;;1.35;1.25;;;34.50;99.90;;;;;;5088014;28;20202;-72
2021/07/13 09:54:34;;;;;;;2.05;1.42;;;34.70;99.90;;;;;;5088949;28;20198;-72
2021/07/13 09:57:03;;;;;;;2.55;1.17;;;35.90;99.90;;;;;;5088972;28;20151;-72
2021/07/13 09:59:29;;;;;;;2.15;1.63;;;36.00;99.90;;;;;;5088474;28;20241;-72
2021/07/13 10:01:55;;;;;;;2.78;2.03;;;35.40;99.90;;;;;;5088904;28;20191;-72
2021/07/13 10:04:22;;;;;;;1.90;1.00;;;35.10;99.90;;;;;;5088714;28;20568;-72
2021/07/13 10:06:51;;;;;;;1.38;0.95;;;35.20;99.90;;;;;;5070523;28;20163;-72
2021/07/13 10:09:20;;;;;;;2.83;1.08;;;35.70;99.90;;;;;;5088427;28;20184;-72
2021/07/13 10:11:46;;;;;;;1.77;1.40;;;35.90;99.90;;;;;;5086001;28;20232;-72
2021/07/13 10:14:13;;;;;;;3.03;1.50;;;35.30;99.90;;;;;;5068251;28;20195;-72
2021/07/13 10:16:39;;;;;;;4.22;0.98;;;35.00;99.90;;;;;;5088802;28;20183;-72
2021/07/13 10:19:07;;;;;;;1.50;1.35;;;34.90;99.90;;;;;;5081385;28;20183;-72
2021/07/13 10:21:33;;;;;;;1.42;1.20;;;35.00;99.90;;;;;;5070703;28;20215;-72
2021/07/13 10:24:02;;;;;;;4.10;2.30;;;35.80;99.90;;;;;;5088762;28;20175;-72
2021/07/13 10:26:50;;;;;;;2.72;1.00;;;35.50;99.90;;;;;;5088374;28;20233;-72
2021/07/13 10:29:34;;;;;;;1.35;1.25;;;35.60;99.90;;;;;;5086387;28;20203;-72
2021/07/13 10:32:06;;;;;;;2.05;1.58;;;34.80;99.90;;;;;;5070995;28;20203;-72
2021/07/13 10:34:55;;;;;;;2.05;1.25;;;35.10;99.90;;;;;;5070576;28;20167;-72
2021/07/13 10:37:38;;;;;;;3.55;1.63;;;34.70;99.90;;;;;;5087038;28;20188;-72
2021/07/13 10:40:35;;;;;;;2.15;1.55;;;35.10;99.90;;;;;;5054974;28;20182;-72
2021/07/13 10:43:02;;;;;;;1.70;1.20;;;35.00;99.90;;;;;;5026014;28;20221;-72
2021/07/13 10:45:31;;;;;;;9.77;1.33;;;34.90;99.90;;;;;;5026092;28;20221;-72
2021/07/13 10:48:13;;;;;;;1.30;1.20;;;35.80;99.90;;;;;;5026238;28;20190;-72
2021/07/13 10:50:51;;;;;;;0.68;0.68;;;36.00;99.90;;;;;;5025438;28;20260;-73
2021/07/13 10:53:24;;;;;;;1.88;1.23;;;35.70;99.90;;;;;;5026628;28;20193;-72
2021/07/13 10:55:58;;;;;;;2.10;1.90;;;36.50;99.90;;;;;;5026443;28;20185;-74
2021/07/13 10:58:32;;;;;;;0.98;0.95;;;36.80;99.90;;;;;;5026748;28;20654;-75
2021/07/13 11:01:08;;;;;;;1.52;1.40;;;35.80;99.90;;;;;;5009982;28;20188;-74
2021/07/13 11:03:36;;;;;;;3.33;1.90;;;36.00;99.90;;;;;;5026797;28;20165;-75
2021/07/13 11:06:11;;;;;;;53.58;17.40;;;36.30;99.90;;;;;;5026146;28;20201;-76
2021/07/13 11:08:49;;;;;;;3.97;1.67;;;36.70;99.90;;;;;;5009764;28;20231;-75
2021/07/13 11:11:18;;;;;;;3.10;1.67;;;37.40;99.90;;;;;;5009048;28;20244;-74
2021/07/13 11:14:05;;;;;;;11.27;0.68;;;36.70;99.90;;;;;;5009924;28;20213;-75
2021/07/13 11:16:39;;;;;;;1.60;1.42;;;36.40;99.90;;;;;;4993593;28;20173;-74
2021/07/13 11:19:17;;;;;;;1.75;0.77;;;36.30;99.90;;;;;;5033856;28;20187;-73
2021/07/13 11:21:48;;;;;;;0.88;0.80;;;36.40;99.90;;;;;;5071872;28;20156;-72
2021/07/13 11:24:19;;;;;;;1.55;0.88;;;35.80;99.90;;;;;;5070591;28;20227;-75
2021/07/13 11:26:50;;;;;;;0.63;0.63;;;34.90;99.90;;;;;;5073706;28;20174;-75
2021/07/13 11:29:22;;;;;;;0.63;0.63;;;35.10;99.90;;;;;;5090987;28;20274;-72
2021/07/13 11:31:59;;;;;;;1.05;0.63;;;35.40;99.90;;;;;;5073755;28;20195;-73
2021/07/13 11:34:33;;;;;;;0.98;0.77;;;35.30;99.90;;;;;;5073073;28;20175;-72
2021/07/13 11:36:59;;;;;;;1.13;0.98;;;34.80;99.90;;;;;;5091756;28;20657;-72
2021/07/13 11:39:33;;;;;;;1.20;0.88;;;34.90;99.90;;;;;;5091442;28;20175;-70
2021/07/13 11:42:06;;;;;;;1.27;1.17;;;35.00;99.90;;;;;;5073912;28;20535;-72
2021/07/13 11:44:34;;;;;;;15.30;0.95;;;35.10;99.90;;;;;;5091206;28;20228;-72
2021/07/13 11:47:02;;;;;;;1.05;1.02;;;35.70;99.90;;;;;;5091279;28;20195;-71
2021/07/13 11:49:34;;;;;;;0.73;0.73;;;35.60;99.60;;;;;;5073167;28;20227;-72
2021/07/13 11:52:02;;;;;;;4.95;2.08;;;36.10;99.00;;;;;;5073480;28;20176;-71
2021/07/13 11:54:34;;;;;;;0.82;0.73;;;36.20;98.80;;;;;;5091691;28;20155;-72
2021/07/13 11:57:03;;;;;;;0.60;0.45;;;36.00;98.60;;;;;;5073084;28;20561;-72
2021/07/13 11:59:30;;;;;;;0.68;0.68;;;35.40;98.80;;;;;;5091202;28;20175;-72
2021/07/13 12:02:03;;;;;;;0.40;0.40;;;35.70;99.80;;;;;;5091119;28;20167;-72
2021/07/13 12:04:30;;;;;;;0.60;0.60;;;35.70;98.60;;;;;;5073144;28;20178;-71
2021/07/13 12:07:03;;;;;;;0.50;0.43;;;35.50;99.50;;;;;;5090983;28;20202;-72
2021/07/13 12:09:31;;;;;;;8.13;0.47;;;35.30;99.20;;;;;;5073007;28;20191;-71
2021/07/13 12:12:06;;;;;;;0.82;0.80;;;35.50;99.60;;;;;;5073084;28;20171;-72
2021/07/13 12:14:33;;;;;;;1.08;0.65;;;35.40;99.50;;;;;;5073138;28;20167;-73
2021/07/13 12:17:00;;;;;;;0.40;0.38;;;35.10;99.10;;;;;;5073054;28;20188;-75
2021/07/13 12:19:28;;;;;;;0.68;0.68;;;34.60;99.70;;;;;;5090921;28;20164;-72
2021/07/13 12:21:58;;;;;;;1.13;0.43;;;34.10;99.60;;;;;;5072190;28;20167;-72
2021/07/13 12:24:35;;;;;;;1.20;0.80;;;33.50;99.90;;;;;;5089342;28;20179;-71
2021/07/13 12:27:04;;;;;;;4.10;0.95;;;33.70;99.70;;;;;;5090589;28;20195;-72
2021/07/13 12:29:38;;;;;;;1.05;1.00;;;33.80;99.90;;;;;;5090509;28;20278;-72
2021/07/13 12:32:07;;;;;;;1.13;1.05;;;33.80;99.90;;;;;;5071943;28;20206;-71
2021/07/13 12:34:42;;;;;;;0.35;0.35;;;33.90;99.90;;;;;;5070890;28;20163;-71
2021/07/13 12:37:18;;;;;;;0.82;0.77;;;33.80;99.90;;;;;;5088189;28;20179;-73
2021/07/13 12:39:49;;;;;;;1.95;1.20;;;33.10;99.90;;;;;;5088465;28;20175;-72
2021/07/13 12:42:23;;;;;;;1.02;0.85;;;32.70;99.90;;;;;;5088696;28;20648;-72
2021/07/13 12:44:56;;;;;;;1.05;0.43;;;32.80;99.90;;;;;;5088158;28;20213;-71
2021/07/13 12:47:26;;;;;;;0.82;0.60;;;32.50;99.90;;;;;;5088706;28;20219;-72
2021/07/13 12:50:18;;;;;;;0.50;0.50;;;32.40;99.90;;;;;;5089768;28;20182;-72
2021/07/13 12:52:59;;;;;;;0.52;0.52;;;32.40;99.90;;;;;;5090292;28;20159;-71
2021/07/13 12:55:38;;;;;;;1.40;0.85;;;32.60;99.90;;;;;;5089937;28;20679;-72
2021/07/13 12:58:13;;;;;;;2.03;0.88;;;33.10;99.90;;;;;;5090149;28;20527;-72